Time;durP1;ratioP1;P1;durP2;ratioP2;P2;SDS_P1;SDS_P2;PMS_P1;PMS_P2;Temp;Humidity;BMP_temperature;BMP_pressure;BME280_temperature;BME280_humidity;BME280_pressure;Samples;Min_cycle;Max_cycle;Signal;HPM_P1;HPM_P2
2023/07/04 04:01:49;;;;;;;;;;;18.70;99.90;;;;;;6762029;23;1976;-78
2023/07/04 04:04:51;;;;;;;;;;;18.80;99.90;;;;;;6174902;28;2367;-79
2023/07/04 04:07:52;;;;;;;;;;;18.80;99.90;;;;;;6176852;28;1166;-79
2023/07/04 04:10:54;;;;;;;;;;;18.80;99.90;;;;;;6172542;28;1588;-79
2023/07/04 04:13:56;;;;;;;;;;;18.80;99.90;;;;;;6175498;28;1354;-80
2023/07/04 04:16:59;;;;;;;;;;;18.80;99.90;;;;;;6176611;28;1091;-76
2023/07/04 04:20:02;;;;;;;;;;;18.90;99.90;;;;;;6175300;28;1458;-77
2023/07/04 04:23:05;;;;;;;;;;;18.90;99.90;;;;;;6165107;28;1392;-77
2023/07/04 04:26:08;;;;;;;;;;;19.00;99.90;;;;;;6176563;28;1902;-76
2023/07/04 04:29:10;;;;;;;;;;;19.00;99.90;;;;;;6176301;28;1058;-77
2023/07/04 04:32:13;;;;;;;;;;;19.00;99.90;;;;;;6174711;28;1499;-76
2023/07/04 04:35:15;;;;;;;;;;;19.10;99.90;;;;;;6176328;28;1089;-74
2023/07/04 04:38:16;;;;;;;;;;;19.10;99.90;;;;;;6176355;28;971;-77
2023/07/04 04:41:18;;;;;;;;;;;19.10;99.90;;;;;;6176547;28;1097;-75
2023/07/04 04:44:20;;;;;;;;;;;19.10;99.90;;;;;;6176074;28;1993;-76
2023/07/04 04:47:25;;;;;;;;;;;19.10;99.90;;;;;;6176346;28;1059;-75
2023/07/04 04:50:30;;;;;;;;;;;19.20;99.90;;;;;;6176107;28;1129;-77
2023/07/04 04:53:34;;;;;;;;;;;19.10;99.90;;;;;;6176242;28;1018;-74
2023/07/04 04:56:36;;;;;;;;;;;19.20;99.90;;;;;;6176099;28;1151;-76
2023/07/04 04:59:38;;;;;;;;;;;19.20;99.90;;;;;;6179131;28;1062;-77
2023/07/04 05:02:41;;;;;;;;;;;19.20;99.90;;;;;;6159985;28;2605;-75
2023/07/04 05:05:42;;;;;;;;;;;19.20;99.90;;;;;;6156862;29;1899;-73
2023/07/04 05:08:44;;;;;;;;;;;19.20;99.90;;;;;;6156755;29;983;-74
2023/07/04 05:11:47;;;;;;;;;;;19.20;99.90;;;;;;6156603;29;2111;-77
2023/07/04 05:14:49;;;;;;;;;;;19.30;99.90;;;;;;6156596;29;1143;-74
2023/07/04 05:17:52;;;;;;;;;;;19.30;99.90;;;;;;6156490;29;1293;-76
2023/07/04 05:21:00;;;;;;;;;;;19.30;99.90;;;;;;6156514;29;1047;-76
2023/07/04 05:24:02;;;;;;;;;;;19.30;99.90;;;;;;6156260;29;986;-76
2023/07/04 05:27:04;;;;;;;;;;;19.30;99.90;;;;;;6156271;29;1980;-77
2023/07/04 05:30:07;;;;;;;;;;;19.40;99.90;;;;;;6156228;29;1045;-75
2023/07/04 05:33:10;;;;;;;;;;;19.40;99.90;;;;;;6156352;29;1027;-77
2023/07/04 05:36:14;;;;;;;;;;;19.40;99.90;;;;;;6156092;29;1058;-75
2023/07/04 05:39:16;;;;;;;;;;;19.50;99.90;;;;;;6156205;29;1130;-76
2023/07/04 05:42:17;;;;;;;;;;;19.50;99.90;;;;;;6156031;29;1044;-74
2023/07/04 05:45:19;;;;;;;;;;;19.50;99.90;;;;;;6155878;29;1973;-76
2023/07/04 05:48:22;;;;;;;;;;;19.60;99.90;;;;;;6155859;29;1048;-76
2023/07/04 05:51:24;;;;;;;;;;;19.60;99.90;;;;;;6155764;29;2116;-76
2023/07/04 05:54:26;;;;;;;;;;;19.60;99.90;;;;;;6166489;28;1495;-76
2023/07/04 05:57:30;;;;;;;;;;;19.80;99.90;;;;;;6179553;28;1103;-77
2023/07/04 06:00:32;;;;;;;;;;;19.80;99.90;;;;;;6179508;28;1060;-76
2023/07/04 06:03:35;;;;;;;;;;;19.90;99.90;;;;;;6179805;28;1051;-76
2023/07/04 06:06:38;;;;;;;;;;;19.80;99.90;;;;;;6179860;28;2004;-77
2023/07/04 06:09:40;;;;;;;;;;;19.90;99.90;;;;;;6181361;28;1014;-75
2023/07/04 06:12:41;;;;;;;;;;;19.90;99.90;;;;;;6179778;28;1090;-75
2023/07/04 06:15:43;;;;;;;;;;;19.90;99.40;;;;;;6179242;28;1073;-77
2023/07/04 06:18:46;;;;;;;;;;;20.00;99.80;;;;;;6179380;28;1039;-76
2023/07/04 06:21:48;;;;;;;;;;;20.00;99.40;;;;;;6178818;28;1154;-76
2023/07/04 06:24:51;;;;;;;;;;;20.00;99.70;;;;;;6178908;28;1899;-76
2023/07/04 06:27:53;;;;;;;;;;;20.00;99.80;;;;;;6179074;28;1045;-74
2023/07/04 06:30:54;;;;;;;;;;;20.00;99.50;;;;;;6178781;28;1958;-75
2023/07/04 06:33:58;;;;;;;;;;;19.90;99.60;;;;;;6178759;28;1101;-75
2023/07/04 06:37:00;;;;;;;;;;;20.00;99.70;;;;;;6178557;28;1285;-74
2023/07/04 06:40:02;;;;;;;;;;;20.10;99.50;;;;;;6159625;28;2790;-75
2023/07/04 06:43:05;;;;;;;;;;;20.20;99.20;;;;;;6154496;29;1037;-77
2023/07/04 06:46:06;;;;;;;;;;;20.30;99.00;;;;;;6154547;29;1978;-76
2023/07/04 06:49:09;;;;;;;;;;;20.30;98.70;;;;;;6154328;29;1037;-77
2023/07/04 06:52:11;;;;;;;;;;;20.40;98.00;;;;;;6154334;29;1100;-74
2023/07/04 06:55:13;;;;;;;;;;;20.40;97.50;;;;;;6154367;29;1970;-76
2023/07/04 06:58:15;;;;;;;;;;;20.40;97.80;;;;;;6154379;29;1151;-75
2023/07/04 07:01:18;;;;;;;;;;;20.50;96.80;;;;;;6156772;29;1112;-77
2023/07/04 07:04:21;;;;;;;;;;;20.60;96.00;;;;;;6154495;28;1023;-74
2023/07/04 07:07:23;;;;;;;;;;;20.70;95.80;;;;;;6154079;29;1989;-75
2023/07/04 07:10:25;;;;;;;;;;;20.70;93.90;;;;;;6154313;29;976;-75
2023/07/04 07:13:27;;;;;;;;;;;20.80;94.70;;;;;;6153813;29;1120;-75
2023/07/04 07:16:28;;;;;;;;;;;20.90;94.30;;;;;;6153855;29;1095;-74
2023/07/04 07:19:32;;;;;;;;;;;20.80;94.10;;;;;;6153804;29;1520;-76
2023/07/04 07:22:34;;;;;;;;;;;20.90;94.90;;;;;;6152855;28;1038;-76
2023/07/04 07:25:36;;;;;;;;;;;20.80;94.70;;;;;;6153642;29;1899;-74
2023/07/04 07:28:39;;;;;;;;;;;20.90;94.90;;;;;;6153489;29;1040;-75
2023/07/04 07:31:41;;;;;;;;;;;21.00;94.00;;;;;;6153615;29;1075;-75
2023/07/04 07:34:44;;;;;;;;;;;21.10;92.30;;;;;;6153958;29;1044;-76
2023/07/04 07:37:46;;;;;;;;;;;21.10;91.80;;;;;;6154146;29;1023;-75
2023/07/04 07:40:50;;;;;;;;;;;21.20;92.30;;;;;;6154480;29;1066;-76
2023/07/04 07:43:52;;;;;;;;;;;21.30;92.30;;;;;;6154719;29;1159;-74
2023/07/04 07:46:54;;;;;;;;;;;21.40;92.60;;;;;;6157831;29;1976;-75
2023/07/04 07:49:57;;;;;;;;;;;21.30;92.20;;;;;;6156572;29;1963;-75
2023/07/04 07:53:00;;;;;;;;;;;21.30;92.50;;;;;;6153944;29;1044;-76
2023/07/04 07:56:03;;;;;;;;;;;21.40;91.30;;;;;;6152983;29;1034;-75
2023/07/04 07:59:05;;;;;;;;;;;21.40;90.80;;;;;;6153034;29;1119;-75
2023/07/04 08:02:12;;;;;;;;;;;21.50;91.40;;;;;;6152651;29;1283;-75
2023/07/04 08:05:17;;;;;;;;;;;21.40;91.40;;;;;;6152987;29;1983;-74
2023/07/04 08:08:18;;;;;;;;;;;21.50;90.10;;;;;;6152711;29;1100;-75
2023/07/04 08:11:21;;;;;;;;;;;21.40;91.00;;;;;;6152631;28;1048;-77
2023/07/04 08:14:24;;;;;;;;;;;21.50;90.20;;;;;;6152674;29;1019;-73
2023/07/04 08:17:25;;;;;;;;;;;21.50;90.00;;;;;;6152801;29;1136;-77
2023/07/04 08:20:29;;;;;;;;;;;21.50;89.10;;;;;;6152809;29;1071;-76
2023/07/04 08:23:31;;;;;;;;;;;21.50;88.20;;;;;;6152857;29;993;-76
2023/07/04 08:26:33;;;;;;;;;;;21.50;89.10;;;;;;6152596;29;1899;-73
2023/07/04 08:29:37;;;;;;;;;;;21.50;87.70;;;;;;6152505;29;1969;-75
2023/07/04 08:32:39;;;;;;;;;;;21.50;89.10;;;;;;6152358;28;1139;-76
2023/07/04 08:35:42;;;;;;;;;;;21.60;88.50;;;;;;6152287;28;1217;-75
2023/07/04 08:38:44;;;;;;;;;;;21.60;87.40;;;;;;6152484;29;1109;-75
2023/07/04 08:41:48;;;;;;;;;;;21.60;88.80;;;;;;6152166;28;1111;-78
2023/07/04 08:44:52;;;;;;;;;;;21.60;86.70;;;;;;6152402;29;1051;-75
2023/07/04 08:47:55;;;;;;;;;;;21.70;86.10;;;;;;6152159;29;1981;-78
2023/07/04 08:50:59;;;;;;;;;;;21.80;84.30;;;;;;6152582;29;1079;-77
2023/07/04 08:54:02;;;;;;;;;;;21.90;85.00;;;;;;6152091;29;1100;-75
2023/07/04 08:57:11;;;;;;;;;;;22.00;85.90;;;;;;6152281;29;1042;-75
2023/07/04 09:00:19;;;;;;;;;;;22.10;85.00;;;;;;6152168;29;1038;-77
2023/07/04 09:03:29;;;;;;;;;;;22.10;84.30;;;;;;6151955;29;1117;-75
2023/07/04 09:06:38;;;;;;;;;;;22.00;84.80;;;;;;6151991;29;1903;-76
2023/07/04 09:09:49;;;;;;;;;;;22.00;84.10;;;;;;6152089;29;1170;-75
2023/07/04 09:12:51;;;;;;;;;;;22.00;83.70;;;;;;6151985;29;1047;-74
2023/07/04 09:15:54;;;;;;;;;;;22.00;83.90;;;;;;6151913;29;1139;-75
2023/07/04 09:18:58;;;;;;;;;;;21.90;83.80;;;;;;6151940;29;1023;-75
2023/07/04 09:22:02;;;;;;;;;;;22.00;84.40;;;;;;6151953;29;1132;-76
2023/07/04 09:25:04;;;;;;;;;;;22.20;84.70;;;;;;6152653;29;1104;-78
2023/07/04 09:28:06;;;;;;;;;;;22.20;83.90;;;;;;6153499;29;1994;-74
2023/07/04 09:31:11;;;;;;;;;;;22.20;84.10;;;;;;6153667;29;1112;-75
2023/07/04 09:34:15;;;;;;;;;;;22.20;84.10;;;;;;6152133;29;1050;-77
2023/07/04 09:37:20;;;;;;;;;;;22.30;84.20;;;;;;6151967;29;1109;-75
2023/07/04 09:40:40;;;;;;;;;;;22.40;83.50;;;;;;6152369;29;1074;-77
2023/07/04 09:43:42;;;;;;;;;;;22.40;83.80;;;;;;6152432;28;1092;-74
2023/07/04 09:46:49;;;;;;;;;;;22.50;82.90;;;;;;6162889;29;1911;-76
2023/07/04 09:50:08;;;;;;;;;;;22.50;82.90;;;;;;6166026;29;1031;-77
2023/07/04 09:53:12;;;;;;;;;;;22.40;81.50;;;;;;6169147;29;1044;-77
2023/07/04 09:56:25;;;;;;;;;;;22.40;80.70;;;;;;6165920;29;1494;-79
2023/07/04 09:59:27;;;;;;;;;;;22.50;81.20;;;;;;6164189;29;1070;-77
2023/07/04 10:02:33;;;;;;;;;;;22.70;81.20;;;;;;6158297;28;1270;-76
2023/07/04 10:05:36;;;;;;;;;;;22.90;80.90;;;;;;6156800;29;1081;-76
2023/07/04 10:08:51;;;;;;;;;;;23.00;79.20;;;;;;6155948;29;1977;-75
2023/07/04 10:12:09;;;;;;;;;;;23.00;78.00;;;;;;6155898;29;1092;-75
2023/07/04 10:15:11;;;;;;;;;;;23.00;79.20;;;;;;6155382;29;1059;-76
2023/07/04 10:18:24;;;;;;;;;;;23.10;77.90;;;;;;6155464;28;1044;-75
2023/07/04 10:21:26;;;;;;;;;;;23.20;77.20;;;;;;6155283;29;1034;-75
2023/07/04 10:24:33;;;;;;;;;;;23.30;77.40;;;;;;6155346;29;1048;-76
2023/07/04 10:27:38;;;;;;;;;;;23.30;76.40;;;;;;6155097;29;1902;-75
2023/07/04 10:30:41;;;;;;;;;;;23.20;76.40;;;;;;6154950;29;1791;-75
2023/07/04 10:33:45;;;;;;;;;;;23.20;76.90;;;;;;6154996;29;1034;-75
2023/07/04 10:36:48;;;;;;;;;;;23.10;75.90;;;;;;6155082;29;1094;-77
2023/07/04 10:39:53;;;;;;;;;;;23.10;75.70;;;;;;6154893;29;1067;-75
2023/07/04 10:42:58;;;;;;;;;;;23.20;76.60;;;;;;6155020;28;1092;-76
2023/07/04 10:46:01;;;;;;;;;;;23.00;75.30;;;;;;6154798;29;1902;-76
2023/07/04 10:49:05;;;;;;;;;;;23.00;76.10;;;;;;6154655;29;1096;-75
2023/07/04 10:52:13;;;;;;;;;;;22.90;75.90;;;;;;6154555;29;1031;-74
2023/07/04 10:55:19;;;;;;;;;;;22.90;76.70;;;;;;6154803;28;1042;-76
2023/07/04 10:58:22;;;;;;;;;;;23.00;77.30;;;;;;6154596;29;1077;-78
2023/07/04 11:01:27;;;;;;;;;;;23.00;77.80;;;;;;6154038;29;1684;-76
2023/07/04 11:04:31;;;;;;;;;;;23.20;79.20;;;;;;6154135;29;1092;-75
2023/07/04 11:07:34;;;;;;;;;;;23.20;78.50;;;;;;6154000;29;1902;-76
2023/07/04 11:10:42;;;;;;;;;;;23.20;78.40;;;;;;6154285;28;1031;-76
2023/07/04 11:13:49;;;;;;;;;;;23.20;77.50;;;;;;6153986;29;1027;-76
2023/07/04 11:16:53;;;;;;;;;;;23.10;76.50;;;;;;6154197;29;1073;-76
2023/07/04 11:19:56;;;;;;;;;;;23.00;76.10;;;;;;6154023;28;1085;-76
2023/07/04 11:23:00;;;;;;;;;;;23.10;77.00;;;;;;6154107;28;1043;-75
2023/07/04 11:26:07;;;;;;;;;;;23.10;77.00;;;;;;6153693;29;1071;-77
2023/07/04 11:29:10;;;;;;;;;;;23.10;76.60;;;;;;6153817;29;1094;-77
2023/07/04 11:32:16;;;;;;;;;;;23.10;75.50;;;;;;6153548;28;1672;-75
2023/07/04 11:35:22;;;;;;;;;;;23.20;75.70;;;;;;6153543;29;980;-76
2023/07/04 11:38:24;;;;;;;;;;;23.30;74.90;;;;;;6155013;29;1087;-76
2023/07/04 11:41:33;;;;;;;;;;;23.20;73.90;;;;;;6153639;29;1030;-76
2023/07/04 11:44:46;;;;;;;;;;;23.30;74.20;;;;;;6153465;29;1151;-76
2023/07/04 11:47:51;;;;;;;;;;;23.50;73.10;;;;;;6153606;29;1903;-76
2023/07/04 11:50:55;;;;;;;;;;;23.60;72.20;;;;;;6153308;29;1101;-77
2023/07/04 11:53:58;;;;;;;;;;;23.70;72.40;;;;;;6153135;29;1103;-75
2023/07/04 11:57:01;;;;;;;;;;;23.90;71.20;;;;;;6153264;29;1084;-76
2023/07/04 12:00:05;;;;;;;;;;;24.00;71.20;;;;;;6153419;29;1062;-74
2023/07/04 12:03:40;;;;;;;;;;;24.10;72.50;;;;;;6153409;28;1119;-74
2023/07/04 12:07:01;;;;;;;;;;;24.20;70.20;;;;;;6152745;28;1895;-75
2023/07/04 12:10:14;;;;;;;;;;;24.40;70.40;;;;;;6152971;29;1549;-74
2023/07/04 12:13:20;;;;;;;;;;;24.40;68.10;;;;;;6153015;29;1110;-74
2023/07/04 12:16:23;;;;;;;;;;;24.40;67.50;;;;;;6152771;29;1110;-76
2023/07/04 12:19:25;;;;;;;;;;;24.30;68.10;;;;;;6152815;29;1093;-77
2023/07/04 12:22:28;;;;;;;;;;;24.50;68.40;;;;;;6152688;29;1036;-74
2023/07/04 12:25:38;;;;;;;;;;;24.50;68.30;;;;;;6152687;29;1091;-74
2023/07/04 12:28:46;;;;;;;;;;;24.70;67.60;;;;;;6152437;29;1902;-77
2023/07/04 12:31:47;;;;;;;;;;;24.80;67.20;;;;;;6152799;29;1025;-76
2023/07/04 12:34:53;;;;;;;;;;;25.00;66.30;;;;;;6152431;29;1147;-77
2023/07/04 12:37:57;;;;;;;;;;;25.00;66.00;;;;;;6152870;29;1042;-77
2023/07/04 12:40:59;;;;;;;;;;;25.00;65.90;;;;;;6152290;29;1143;-74
2023/07/04 12:44:04;;;;;;;;;;;25.10;67.00;;;;;;6152355;28;1072;-77
2023/07/04 12:47:10;;;;;;;;;;;25.10;66.00;;;;;;6152309;29;1908;-77
2023/07/04 12:50:12;;;;;;;;;;;25.10;65.70;;;;;;6152191;29;1681;-77
2023/07/04 12:53:14;;;;;;;;;;;25.20;66.10;;;;;;6152309;29;1089;-76
2023/07/04 12:56:17;;;;;;;;;;;25.20;65.60;;;;;;6152554;29;1017;-75
2023/07/04 12:59:33;;;;;;;;;;;25.20;66.00;;;;;;6152400;29;1013;-75
2023/07/04 13:02:35;;;;;;;;;;;25.10;64.00;;;;;;6152135;29;1121;-76
2023/07/04 13:05:40;;;;;;;;;;;25.20;64.00;;;;;;6152109;29;2063;-74
2023/07/04 13:08:45;;;;;;;;;;;25.40;63.80;;;;;;6151911;29;1898;-76
2023/07/04 13:11:48;;;;;;;;;;;25.70;63.50;;;;;;6152232;29;1146;-75
2023/07/04 13:14:51;;;;;;;;;;;25.90;62.10;;;;;;6152259;29;1082;-77
2023/07/04 13:17:59;;;;;;;;;;;26.00;62.70;;;;;;6152032;28;1112;-75
2023/07/04 13:21:00;;;;;;;;;;;26.10;63.10;;;;;;6155346;29;1035;-75
2023/07/04 13:24:04;;;;;;;;;;;26.00;62.10;;;;;;6156680;29;1103;-74
2023/07/04 13:27:12;;;;;;;;;;;26.00;62.00;;;;;;6156448;29;1894;-75
2023/07/04 13:30:26;;;;;;;;;;;26.00;62.70;;;;;;6156542;29;1028;-75
2023/07/04 13:33:31;;;;;;;;;;;25.90;62.50;;;;;;6156342;29;1082;-74
2023/07/04 13:36:35;;;;;;;;;;;25.90;61.00;;;;;;6156386;29;1090;-77
2023/07/04 13:39:37;;;;;;;;;;;25.90;61.00;;;;;;6156417;29;1108;-75
2023/07/04 13:42:39;;;;;;;;;;;26.20;60.70;;;;;;6156259;29;1040;-75
2023/07/04 13:45:42;;;;;;;;;;;26.40;61.20;;;;;;6156260;29;2005;-74
2023/07/04 13:48:44;;;;;;;;;;;26.40;60.50;;;;;;6155960;28;1906;-75
2023/07/04 13:51:46;;;;;;;;;;;26.60;61.00;;;;;;6155940;29;1066;-76
2023/07/04 13:54:48;;;;;;;;;;;26.90;60.60;;;;;;6156360;29;1106;-75
2023/07/04 13:57:50;;;;;;;;;;;26.90;59.70;;;;;;6156015;29;1066;-76
2023/07/04 14:00:53;;;;;;;;;;;27.00;60.40;;;;;;6166486;29;1258;-76
2023/07/04 14:03:54;;;;;;;;;;;27.20;60.60;;;;;;6170203;29;1065;-75
2023/07/04 14:06:56;;;;;;;;;;;27.40;60.00;;;;;;6177760;28;1875;-77
2023/07/04 14:09:59;;;;;;;;;;;27.70;59.50;;;;;;6164956;29;1040;-76
2023/07/04 14:13:01;;;;;;;;;;;27.70;59.60;;;;;;6165439;29;1142;-76
2023/07/04 14:16:07;;;;;;;;;;;27.90;59.40;;;;;;6161386;29;1098;-76
2023/07/04 14:19:08;;;;;;;;;;;28.10;58.10;;;;;;6164163;29;1104;-76
2023/07/04 14:22:12;;;;;;;;;;;28.20;57.70;;;;;;6161106;29;1101;-76
2023/07/04 14:25:13;;;;;;;;;;;28.10;57.10;;;;;;6156091;29;1075;-76
2023/07/04 14:28:15;;;;;;;;;;;28.00;57.70;;;;;;6156207;29;1894;-76
2023/07/04 14:31:19;;;;;;;;;;;28.00;57.50;;;;;;6155510;28;1124;-76
2023/07/04 14:34:21;;;;;;;;;;;28.30;57.40;;;;;;6155754;29;1031;-74
2023/07/04 14:37:23;;;;;;;;;;;28.40;56.90;;;;;;6155636;29;1090;-75
2023/07/04 14:40:25;;;;;;;;;;;28.10;56.10;;;;;;6155529;29;1042;-76
2023/07/04 14:43:27;;;;;;;;;;;28.00;56.80;;;;;;6155835;29;2044;-75
2023/07/04 14:46:30;;;;;;;;;;;28.30;57.00;;;;;;6164957;28;2266;-76
2023/07/04 14:49:32;;;;;;;;;;;28.40;56.50;;;;;;6178986;28;1953;-74
2023/07/04 14:52:38;;;;;;;;;;;28.60;55.70;;;;;;6177683;28;1537;-76
2023/07/04 14:55:39;;;;;;;;;;;28.70;56.60;;;;;;6178149;28;1406;-78
2023/07/04 14:58:42;;;;;;;;;;;29.20;56.00;;;;;;6175814;28;1378;-79
2023/07/04 15:01:45;;;;;;;;;;;29.30;55.10;;;;;;6175938;28;1600;-79
2023/07/04 15:04:47;;;;;;;;;;;29.00;55.40;;;;;;6178345;28;1052;-77
2023/07/04 15:07:48;;;;;;;;;;;28.90;55.70;;;;;;6175340;28;1906;-76
2023/07/04 15:10:50;;;;;;;;;;;28.80;55.80;;;;;;6172373;28;1417;-77
2023/07/04 15:13:53;;;;;;;;;;;28.90;55.70;;;;;;6176399;28;1030;-78
2023/07/04 15:16:56;;;;;;;;;;;28.90;54.30;;;;;;6175921;28;1052;-78
2023/07/04 15:19:58;;;;;;;;;;;28.80;54.50;;;;;;6174737;28;1370;-79
2023/07/04 15:23:00;;;;;;;;;;;28.50;54.90;;;;;;6175388;28;1601;-78
2023/07/04 15:26:02;;;;;;;;;;;28.60;55.20;;;;;;6173875;28;999;-74
2023/07/04 15:29:04;;;;;;;;;;;28.50;54.90;;;;;;6173762;28;1975;-77
2023/07/04 15:32:08;;;;;;;;;;;28.60;55.20;;;;;;6183046;28;1842;-79
2023/07/04 15:35:09;;;;;;;;;;;28.90;54.00;;;;;;6159308;28;1144;-78
2023/07/04 15:38:16;;;;;;;;;;;29.20;54.10;;;;;;6155026;28;1565;-76
2023/07/04 15:41:21;;;;;;;;;;;29.50;54.10;;;;;;6177087;28;2005;-76
2023/07/04 15:44:24;;;;;;;;;;;29.50;53.50;;;;;;6177868;28;1172;-77
2023/07/04 15:47:28;;;;;;;;;;;29.70;52.60;;;;;;6176092;28;1981;-76
2023/07/04 15:50:30;;;;;;;;;;;29.90;52.00;;;;;;6178524;28;1343;-78
2023/07/04 15:53:32;;;;;;;;;;;29.60;51.50;;;;;;6178193;28;1192;-75
2023/07/04 15:56:35;;;;;;;;;;;29.30;51.70;;;;;;6178403;28;1272;-75
2023/07/04 15:59:36;;;;;;;;;;;29.50;51.90;;;;;;6176583;28;1557;-78
2023/07/04 16:02:40;;;;;;;;;;;29.50;51.70;;;;;;6176711;28;2418;-76
2023/07/04 16:05:43;;;;;;;;;;;29.70;51.20;;;;;;6174176;28;1343;-77
2023/07/04 16:08:45;;;;;;;;;;;29.40;51.50;;;;;;6163455;28;1894;-78
2023/07/04 16:11:47;;;;;;;;;;;29.30;52.50;;;;;;6174551;28;1696;-73
2023/07/04 16:14:49;;;;;;;;;;;29.00;52.30;;;;;;6176857;28;1787;-72
2023/07/04 16:17:52;;;;;;;;;;;28.90;52.00;;;;;;6176652;28;1394;-73
2023/07/04 16:20:55;;;;;;;;;;;29.30;52.20;;;;;;6176732;28;1155;-73
2023/07/04 16:23:57;;;;;;;;;;;29.80;52.40;;;;;;6177163;28;1674;-73
2023/07/04 16:26:58;;;;;;;;;;;30.10;51.20;;;;;;6174873;28;1519;-75
2023/07/04 16:30:00;;;;;;;;;;;30.30;51.90;;;;;;6176643;28;2283;-74
2023/07/04 16:33:03;;;;;;;;;;;30.10;50.60;;;;;;6171262;28;1608;-73
2023/07/04 16:36:06;;;;;;;;;;;30.00;51.10;;;;;;6174657;28;1520;-75
2023/07/04 16:39:08;;;;;;;;;;;29.80;51.70;;;;;;6176407;28;1143;-74
2023/07/04 16:42:10;;;;;;;;;;;30.00;51.90;;;;;;6173726;28;1527;-74
2023/07/04 16:45:12;;;;;;;;;;;30.00;51.20;;;;;;6165747;28;1549;-75
2023/07/04 16:48:16;;;;;;;;;;;29.90;51.70;;;;;;6176298;28;1899;-74
2023/07/04 16:51:19;;;;;;;;;;;29.40;51.50;;;;;;6174225;28;1511;-74
2023/07/04 16:54:21;;;;;;;;;;;29.40;51.60;;;;;;6168054;28;1511;-75
2023/07/04 16:57:23;;;;;;;;;;;29.10;52.40;;;;;;6180288;28;1410;-74
2023/07/04 17:00:25;;;;;;;;;;;29.00;52.80;;;;;;6174005;28;2616;-75
2023/07/04 17:03:29;;;;;;;;;;;28.80;52.80;;;;;;6174938;28;2696;-73
2023/07/04 17:06:30;;;;;;;;;;;29.00;52.20;;;;;;6175375;28;2572;-74
2023/07/04 17:09:32;;;;;;;;;;;29.00;52.80;;;;;;6179721;28;1900;-76
2023/07/04 17:12:34;;;;;;;;;;;29.00;52.80;;;;;;6180263;28;2329;-78
2023/07/04 17:15:36;;;;;;;;;;;29.10;52.50;;;;;;6178423;28;1557;-75
2023/07/04 17:18:39;;;;;;;;;;;29.00;52.80;;;;;;6177856;28;2039;-76
2023/07/04 17:21:41;;;;;;;;;;;28.80;52.90;;;;;;6170138;28;2828;-75
2023/07/04 17:24:42;;;;;;;;;;;28.40;53.50;;;;;;6162217;28;2656;-77
2023/07/04 17:27:44;;;;;;;;;;;28.20;54.00;;;;;;6180318;28;3103;-76
2023/07/04 17:30:46;;;;;;;;;;;27.90;54.40;;;;;;6180101;28;2125;-74
2023/07/04 17:33:49;;;;;;;;;;;27.70;55.00;;;;;;6180288;28;1496;-75
2023/07/04 17:36:53;;;;;;;;;;;27.60;55.30;;;;;;6174115;28;2680;-77
2023/07/04 17:39:55;;;;;;;;;;;27.40;55.60;;;;;;6176131;28;2371;-75
2023/07/04 17:42:57;;;;;;;;;;;27.70;56.40;;;;;;6178926;28;1394;-79
2023/07/04 17:46:00;;;;;;;;;;;27.80;56.10;;;;;;6179809;28;1480;-75
2023/07/04 17:49:03;;;;;;;;;;;27.90;58.20;;;;;;6178660;28;1977;-77
2023/07/04 17:52:06;;;;;;;;;;;27.90;57.60;;;;;;6174571;28;1457;-78
2023/07/04 17:55:09;;;;;;;;;;;28.00;57.00;;;;;;6175828;28;1604;-78
2023/07/04 17:58:11;;;;;;;;;;;28.00;56.80;;;;;;6173912;28;2168;-77
2023/07/04 18:01:14;;;;;;;;;;;28.30;56.60;;;;;;6178805;28;1522;-78
2023/07/04 18:04:21;;;;;;;;;;;27.90;56.50;;;;;;6188585;28;1242;-76
2023/07/04 18:07:25;;;;;;;;;;;28.00;56.90;;;;;;6179402;28;1448;-77
2023/07/04 18:10:26;;;;;;;;;;;27.90;56.90;;;;;;6186405;28;1895;-77
2023/07/04 18:13:28;;;;;;;;;;;27.90;56.50;;;;;;6183315;28;2351;-78
2023/07/04 18:16:31;;;;;;;;;;;27.90;56.40;;;;;;6188182;28;2494;-76
2023/07/04 18:19:35;;;;;;;;;;;27.70;56.80;;;;;;6181390;28;1689;-78
2023/07/04 18:22:37;;;;;;;;;;;27.40;57.00;;;;;;6180389;28;1527;-76
2023/07/04 18:25:39;;;;;;;;;;;27.30;57.40;;;;;;6176308;28;1568;-78
2023/07/04 18:28:42;;;;;;;;;;;27.20;57.80;;;;;;6177439;28;1895;-78
2023/07/04 18:31:44;;;;;;;;;;;27.10;58.00;;;;;;6176776;28;2735;-78
2023/07/04 18:34:47;;;;;;;;;;;26.90;58.60;;;;;;6175111;28;1428;-76
2023/07/04 18:37:49;;;;;;;;;;;26.70;59.00;;;;;;6176756;28;1600;-79
2023/07/04 18:40:52;;;;;;;;;;;26.50;59.60;;;;;;6177153;28;1105;-78
2023/07/04 18:43:54;;;;;;;;;;;26.50;60.40;;;;;;6175039;28;1354;-77
2023/07/04 18:46:58;;;;;;;;;;;26.40;60.30;;;;;;6176036;28;1402;-76
2023/07/04 18:50:03;;;;;;;;;;;26.40;58.90;;;;;;6160176;28;2561;-77
2023/07/04 18:53:05;;;;;;;;;;;26.20;59.10;;;;;;6174543;28;2289;-79
2023/07/04 18:56:07;;;;;;;;;;;26.20;58.00;;;;;;6175038;28;1377;-78
2023/07/04 18:59:10;;;;;;;;;;;26.20;58.40;;;;;;6176899;28;1081;-76
2023/07/04 19:02:12;;;;;;;;;;;26.10;58.40;;;;;;6175301;28;1555;-79
2023/07/04 19:05:15;;;;;;;;;;;26.00;58.70;;;;;;6172754;28;2645;-78
2023/07/04 19:08:16;;;;;;;;;;;26.00;58.50;;;;;;6159644;28;2558;-78
2023/07/04 19:11:20;;;;;;;;;;;25.90;59.10;;;;;;6172534;28;3372;-77
2023/07/04 19:14:23;;;;;;;;;;;25.80;59.90;;;;;;6176081;28;1231;-76
2023/07/04 19:17:25;;;;;;;;;;;25.70;62.40;;;;;;6173063;28;2383;-77
2023/07/04 19:20:30;;;;;;;;;;;25.60;63.40;;;;;;6174846;28;1699;-76
2023/07/04 19:23:32;;;;;;;;;;;25.60;64.30;;;;;;6167286;28;2562;-77
2023/07/04 19:26:36;;;;;;;;;;;25.50;63.80;;;;;;6173448;28;1563;-78
2023/07/04 19:29:38;;;;;;;;;;;25.50;64.30;;;;;;6163053;28;3284;-77
2023/07/04 19:32:40;;;;;;;;;;;25.50;64.30;;;;;;6176470;28;1043;-78
2023/07/04 19:35:43;;;;;;;;;;;25.40;64.60;;;;;;6176874;28;1572;-79
2023/07/04 19:38:45;;;;;;;;;;;25.30;65.20;;;;;;6179165;28;1061;-77
2023/07/04 19:41:47;;;;;;;;;;;25.20;65.40;;;;;;6179849;28;2111;-78
2023/07/04 19:44:49;;;;;;;;;;;25.20;65.50;;;;;;6168856;28;3567;-77
2023/07/04 19:47:51;;;;;;;;;;;25.10;66.30;;;;;;6163284;28;3491;-78
2023/07/04 19:51:00;;;;;;;;;;;25.00;66.90;;;;;;6172244;28;3514;-79
2023/07/04 19:54:05;;;;;;;;;;;24.90;67.50;;;;;;6151720;28;1778;-77
2023/07/04 19:57:08;;;;;;;;;;;24.90;67.70;;;;;;6167700;28;2172;-78
2023/07/04 20:00:11;;;;;;;;;;;24.80;67.80;;;;;;6169273;28;2636;-78
2023/07/04 20:03:13;;;;;;;;;;;24.70;68.20;;;;;;6177539;28;2447;-78
2023/07/04 20:06:17;;;;;;;;;;;24.70;68.40;;;;;;6177979;28;1159;-74
2023/07/04 20:09:19;;;;;;;;;;;24.60;68.10;;;;;;6160326;28;2375;-76
2023/07/04 20:12:21;;;;;;;;;;;24.40;67.60;;;;;;6178477;28;1098;-77
2023/07/04 20:15:22;;;;;;;;;;;24.40;68.30;;;;;;6177236;28;1735;-77
2023/07/04 20:18:25;;;;;;;;;;;24.40;69.00;;;;;;6177836;28;1384;-77
2023/07/04 20:21:28;;;;;;;;;;;24.30;69.70;;;;;;6177932;28;1025;-76
2023/07/04 20:24:30;;;;;;;;;;;24.30;70.10;;;;;;6178146;28;1101;-78
2023/07/04 20:27:32;;;;;;;;;;;24.30;70.60;;;;;;6176439;28;1985;-78
2023/07/04 20:30:35;;;;;;;;;;;24.30;70.80;;;;;;6176592;28;1977;-79
2023/07/04 20:33:40;;;;;;;;;;;24.30;70.70;;;;;;6176787;28;967;-77
2023/07/04 20:36:46;;;;;;;;;;;24.20;70.30;;;;;;6175007;28;1823;-78
2023/07/04 20:39:48;;;;;;;;;;;24.10;70.50;;;;;;6175767;28;1950;-79
2023/07/04 20:42:49;;;;;;;;;;;23.90;70.90;;;;;;6177152;28;1055;-76
2023/07/04 20:45:53;;;;;;;;;;;23.80;71.00;;;;;;6174280;28;1970;-77
2023/07/04 20:48:55;;;;;;;;;;;23.80;71.50;;;;;;6157393;28;1954;-79
2023/07/04 20:51:58;;;;;;;;;;;23.80;72.00;;;;;;6160640;29;1089;-77
2023/07/04 20:55:00;;;;;;;;;;;23.70;73.00;;;;;;6158046;29;1594;-77
2023/07/04 20:58:02;;;;;;;;;;;23.80;72.60;;;;;;6153868;28;2054;-78
2023/07/04 21:01:04;;;;;;;;;;;23.80;72.90;;;;;;6172549;28;1956;-77
2023/07/04 21:04:06;;;;;;;;;;;23.60;73.30;;;;;;6175551;28;1826;-76
2023/07/04 21:07:09;;;;;;;;;;;23.50;73.80;;;;;;6175667;28;1160;-77
2023/07/04 21:10:12;;;;;;;;;;;23.40;75.00;;;;;;6174034;28;1942;-76
2023/07/04 21:13:18;;;;;;;;;;;23.50;74.70;;;;;;6174598;28;1742;-77
2023/07/04 21:16:20;;;;;;;;;;;23.30;75.00;;;;;;6176466;28;1039;-77
2023/07/04 21:19:22;;;;;;;;;;;23.10;74.70;;;;;;6176135;28;1045;-77
2023/07/04 21:22:25;;;;;;;;;;;23.10;75.40;;;;;;6174361;28;1667;-79
2023/07/04 21:25:28;;;;;;;;;;;23.10;75.70;;;;;;6175171;28;1767;-78
2023/07/04 21:28:30;;;;;;;;;;;23.00;76.10;;;;;;6175132;28;1766;-76
